Time;durP1;ratioP1;P1;durP2;ratioP2;P2;SDS_P1;SDS_P2;PMS_P1;PMS_P2;Temp;Humidity;BMP_temperature;BMP_pressure;BME280_temperature;BME280_humidity;BME280_pressure;Samples;Min_cycle;Max_cycle;Signal;HPM_P1;HPM_P2
2021/12/17 00:00:25;;;;;;;41.58;31.83;;;;;;;8.51;82.25;103795.78;3576537;40;20049;-65
2021/12/17 00:08:15;;;;;;;42.05;29.75;;;;;;;8.57;82.34;103791.28;3576409;40;20048;-64
2021/12/17 00:10:45;;;;;;;42.60;31.10;;;;;;;8.59;82.26;103789.50;3575859;40;20054;-65
2021/12/17 00:13:13;;;;;;;39.95;30.92;;;;;;;8.62;82.90;103798.41;3576507;40;20059;-65
2021/12/17 00:15:40;;;;;;;42.03;31.55;;;;;;;8.62;82.32;103790.34;3577498;40;20106;-67
2021/12/17 00:18:20;;;;;;;42.63;32.03;;;;;;;8.63;83.05;103784.09;3575948;40;20048;-67
2021/12/17 00:40:12;;;;;;;40.47;31.00;;;;;;;8.65;82.11;103787.66;3577209;40;20058;-66
2021/12/17 00:40:32;;;;;;;41.05;33.00;;;;;;;8.74;83.71;103776.88;3576651;40;20290;-64
2021/12/17 00:48:37;;;;;;;42.08;32.45;;;;;;;8.78;82.80;103775.94;3577150;40;20414;-65
2021/12/17 00:53:58;;;;;;;42.05;33.03;;;;;;;8.75;82.81;103778.66;3577485;40;20097;-65
2021/12/17 00:56:26;;;;;;;41.08;32.08;;;;;;;8.76;82.93;103772.41;3578385;40;20373;-66
2021/12/17 00:58:54;;;;;;;41.58;32.97;;;;;;;8.78;83.39;103775.94;3576309;40;20079;-65
2021/12/17 01:01:21;;;;;;;39.97;30.67;;;;;;;8.81;83.16;103781.28;3579814;40;20061;-65
2021/12/17 01:03:49;;;;;;;41.85;32.58;;;;;;;8.74;83.01;103769.72;3581056;40;20059;-66
2021/12/17 01:06:15;;;;;;;41.42;32.50;;;;;;;8.84;83.03;103773.22;3579506;40;20122;-65
2021/12/17 01:08:41;;;;;;;42.25;31.50;;;;;;;8.82;82.94;103770.56;3574909;40;20337;-65
2021/12/17 01:11:07;;;;;;;42.72;32.42;;;;;;;8.82;83.05;103772.38;3574655;40;20060;-65
2021/12/17 01:13:37;;;;;;;39.35;31.98;;;;;;;8.85;83.29;103766.97;3579518;40;20099;-64
2021/12/17 01:16:03;;;;;;;45.40;33.17;;;;;;;8.83;83.68;103758.94;3578894;40;20056;-64
2021/12/17 01:18:43;;;;;;;43.05;33.65;;;;;;;8.70;83.46;103726.84;3579728;40;20056;-65
2021/12/17 01:21:36;;;;;;;43.47;33.35;;;;;;;8.92;82.89;103755.28;3576752;40;20068;-65
2021/12/17 01:40:51;;;;;;;46.50;34.35;;;;;;;6.64;82.76;103373.75;3615617;22;20033;-87
2021/12/17 01:43:05;;;;;;;42.75;33.38;;;;;;;8.99;83.12;103754.34;3595360;39;20379;-87
2021/12/17 01:45:36;;;;;;;42.22;32.60;;;;;;;9.03;83.61;103766.81;3603076;39;20171;-87
2021/12/17 01:48:07;;;;;;;43.47;33.00;;;;;;;9.04;83.00;103760.56;3594317;40;20039;-87
2021/12/17 02:01:26;;;;;;;44.15;34.35;;;;;;;8.48;82.86;103656.41;3586743;40;20098;-88
2021/12/17 02:03:52;;;;;;;43.45;32.85;;;;;;;7.79;82.96;103538.97;3587415;40;20029;-88
2021/12/17 02:06:18;;;;;;;42.90;33.20;;;;;;;7.28;82.77;103450.06;3593618;39;20422;-88
2021/12/17 02:08:46;;;;;;;43.60;32.90;;;;;;;8.95;83.00;103749.91;3586892;40;20786;-89
2021/12/17 02:19:45;;;;;;;45.75;32.50;;;;;;;8.46;82.47;103658.19;3586431;40;20114;-89
2021/12/17 02:31:03;;;;;;;69.90;40.97;;;;;;;8.95;83.63;103733.81;3585476;40;20059;-89
2021/12/17 02:33:17;;;;;;;70.13;41.13;;;;;;;9.09;83.40;103754.25;3585561;40;20052;-88
2021/12/17 02:35:45;;;;;;;80.43;43.05;;;;;;;8.03;83.34;103572.75;3586545;40;20048;-88
2021/12/17 02:38:13;;;;;;;74.10;42.72;;;;;;;8.60;83.42;103675.97;3586836;40;20041;-88
2021/12/17 02:46:25;;;;;;;72.40;41.42;;;;;;;7.81;83.52;103542.53;3583737;40;20040;-89
2021/12/17 02:48:53;;;;;;;68.88;40.55;;;;;;;9.09;83.09;103754.25;3586318;40;20021;-88
2021/12/17 02:51:22;;;;;;;69.07;39.85;;;;;;;8.05;83.14;103565.56;3587150;40;20595;-89
2021/12/17 02:53:49;;;;;;;67.60;39.03;;;;;;;8.98;83.79;103731.09;3586261;40;20069;-88
2021/12/17 02:56:15;;;;;;;68.93;39.80;;;;;;;8.11;83.31;103578.91;3584478;40;20052;-88
2021/12/17 02:58:41;;;;;;;71.60;39.92;;;;;;;7.99;83.29;103550.44;3582882;40;20033;-89
2021/12/17 03:01:10;;;;;;;69.70;40.15;;;;;;;8.91;83.10;103713.28;3586311;40;20061;-89
2021/12/17 03:03:40;;;;;;;69.50;39.20;;;;;;;9.20;82.88;103760.44;3587453;40;20758;-89
2021/12/17 03:06:06;;;;;;;74.32;40.30;;;;;;;8.73;83.26;103694.66;3584831;40;20049;-88
2021/12/17 03:08:33;;;;;;;72.55;40.95;;;;;;;8.34;83.10;103605.53;3586984;40;20065;-88
2021/12/17 03:11:00;;;;;;;76.70;40.53;;;;;;;7.95;83.31;103537.06;3585337;40;20036;-89
2021/12/17 03:13:28;;;;;;;79.40;42.13;;;;;;;7.53;83.09;103475.78;3594444;39;20061;-90
2021/12/17 03:26:06;;;;;;;83.82;41.75;;;;;;;8.96;83.23;103734.69;3587147;40;20037;-88
2021/12/17 03:28:34;;;;;;;83.03;42.78;;;;;;;9.18;83.80;103778.34;3594551;40;20691;-90
2021/12/17 03:31:02;;;;;;;81.90;41.72;;;;;;;9.17;83.97;103784.63;3588300;40;20789;-89
2021/12/17 03:33:28;;;;;;;78.07;39.80;;;;;;;9.13;83.56;103772.09;3619893;22;20045;-62
2021/12/17 03:35:54;;;;;;;81.07;41.60;;;;;;;9.11;83.38;103773.94;3569764;40;20045;-61
2021/12/17 03:38:21;;;;;;;87.85;41.67;;;;;;;9.17;84.01;103776.56;3570937;40;20414;-61
2021/12/17 03:40:52;;;;;;;90.22;42.15;;;;;;;8.95;83.46;103735.59;3567631;40;20113;-61
2021/12/17 03:43:23;;;;;;;90.60;40.80;;;;;;;9.18;84.01;103781.03;3561072;40;20053;-61
2021/12/17 03:45:49;;;;;;;98.90;40.47;;;;;;;9.19;84.03;103777.41;3557984;40;20058;-61
2021/12/17 03:48:15;;;;;;;96.03;39.60;;;;;;;8.99;83.86;103740.91;3555020;40;20065;-62
2021/12/17 03:50:40;;;;;;;101.95;41.08;;;;;;;9.17;84.25;103776.56;3563438;40;20420;-62
2021/12/17 03:53:08;;;;;;;96.47;39.70;;;;;;;9.14;83.89;103771.22;3561124;40;20061;-62
2021/12/17 03:55:34;;;;;;;104.25;39.95;;;;;;;9.12;84.57;103768.53;3561334;40;20057;-62
2021/12/17 03:58:00;;;;;;;107.60;40.17;;;;;;;9.12;84.17;103765.84;3559861;40;20402;-62
2021/12/17 04:00:28;;;;;;;115.00;42.10;;;;;;;9.11;84.09;103776.63;3560919;40;20136;-63
2021/12/17 04:02:54;;;;;;;109.28;41.88;;;;;;;8.90;84.75;103746.34;3562333;40;20406;-61
2021/12/17 04:05:21;;;;;;;122.65;42.08;;;;;;;8.89;84.63;103736.53;3560873;40;20049;-62
2021/12/17 04:07:47;;;;;;;113.25;39.80;;;;;;;9.02;84.15;103762.34;3560221;40;20051;-62
2021/12/17 04:10:13;;;;;;;110.25;38.97;;;;;;;8.96;84.68;103757.03;3550555;40;20061;-62
2021/12/17 04:12:53;;;;;;;114.75;39.78;;;;;;;9.08;84.95;103761.41;3560046;40;20049;-63
2021/12/17 04:15:29;;;;;;;119.63;42.03;;;;;;;9.04;84.52;103765.94;3558917;40;20108;-65
2021/12/17 04:17:57;;;;;;;115.80;41.47;;;;;;;9.08;84.88;103766.78;3560159;40;20073;-63
2021/12/17 04:20:23;;;;;;;119.18;41.10;;;;;;;9.06;85.02;103760.53;3560773;40;20269;-63
2021/12/17 04:22:48;;;;;;;125.68;42.22;;;;;;;9.02;85.09;103757.00;3559739;40;20064;-63
2021/12/17 04:25:14;;;;;;;123.18;42.72;;;;;;;8.99;85.12;103759.69;3561446;40;20060;-61
2021/12/17 04:27:39;;;;;;;130.68;45.50;;;;;;;8.99;85.47;103757.00;3562464;40;20101;-61
2021/12/17 04:30:06;;;;;;;139.45;46.72;;;;;;;9.03;84.81;103764.13;3558058;40;20058;-61
2021/12/17 04:32:31;;;;;;;135.70;44.03;;;;;;;9.00;85.42;103768.63;3560728;40;20050;-62
2021/12/17 04:34:57;;;;;;;129.02;44.10;;;;;;;9.04;85.66;103765.94;3558683;40;20056;-64
2021/12/17 04:37:23;;;;;;;136.23;44.05;;;;;;;9.05;84.63;103761.44;3560602;40;20115;-62
2021/12/17 04:39:49;;;;;;;118.75;43.85;;;;;;;9.04;85.32;103771.28;3560664;40;20057;-61
2021/12/17 04:42:24;;;;;;;122.20;42.25;;;;;;;9.05;85.36;103767.69;3556137;40;20418;-61
2021/12/17 04:44:54;;;;;;;119.40;41.42;;;;;;;9.04;85.31;103765.94;3561300;40;20100;-62
2021/12/17 04:57:58;;;;;;;127.90;44.88;;;;;;;9.02;85.12;103766.84;3561250;40;20052;-63
2021/12/17 05:00:30;;;;;;;130.13;44.40;;;;;;;9.01;85.18;103755.22;3558941;40;20327;-63
2021/12/17 05:02:59;;;;;;;136.80;46.15;;;;;;;9.04;85.50;103765.03;3561779;40;20045;-64
2021/12/17 05:05:31;;;;;;;139.35;45.55;;;;;;;9.04;85.43;103765.94;3560674;40;20057;-63
2021/12/17 05:08:04;;;;;;;131.02;44.60;;;;;;;9.01;85.33;103765.06;3560395;40;20147;-64
2021/12/17 05:18:42;;;;;;;142.25;46.75;;;;;;;8.91;85.58;103742.78;3564495;40;20048;-64
2021/12/17 05:21:09;;;;;;;134.45;45.58;;;;;;;9.05;85.78;103762.34;3561190;40;20061;-64
2021/12/17 05:23:42;;;;;;;132.95;45.00;;;;;;;8.97;85.58;103748.06;3564087;40;20061;-64
2021/12/17 05:26:14;;;;;;;136.50;44.47;;;;;;;9.03;85.02;103758.75;3561921;40;20378;-64
2021/12/17 05:28:40;;;;;;;123.13;42.17;;;;;;;8.85;85.15;103726.75;3561030;40;20366;-64
2021/12/17 05:31:07;;;;;;;132.50;46.20;;;;;;;8.98;85.44;103763.28;3561742;40;20077;-64
2021/12/17 05:33:33;;;;;;;137.68;44.47;;;;;;;9.09;85.28;103773.94;3562260;40;20093;-63
2021/12/17 05:35:59;;;;;;;136.95;46.50;;;;;;;9.09;85.21;103778.41;3559355;40;20303;-64
2021/12/17 05:38:28;;;;;;;120.53;41.75;;;;;;;8.77;85.18;103731.25;3561984;40;20053;-64
2021/12/17 05:40:56;;;;;;;123.68;39.55;;;;;;;9.09;85.38;103783.78;3559948;40;20426;-67
2021/12/17 05:43:22;;;;;;;118.80;39.97;;;;;;;9.00;85.65;103769.53;3560808;40;20080;-64
2021/12/17 05:48:26;;;;;;;116.88;39.88;;;;;;;9.10;84.94;103775.69;3562838;40;20049;-65
2021/12/17 05:50:56;;;;;;;120.35;41.58;;;;;;;8.96;85.27;103751.66;3559894;40;20048;-63
2021/12/17 05:53:24;;;;;;;122.80;41.20;;;;;;;9.13;85.16;103777.47;3560477;40;20053;-64
2021/12/17 05:55:51;;;;;;;116.75;41.55;;;;;;;9.12;85.14;103771.22;3560628;40;20052;-63
2021/12/17 05:58:17;;;;;;;112.80;39.50;;;;;;;9.03;85.38;103749.81;3559287;40;20046;-64
2021/12/17 06:00:45;;;;;;;108.32;37.05;;;;;;;9.10;85.37;103766.75;3559484;40;20056;-64
2021/12/17 06:03:11;;;;;;;112.55;38.25;;;;;;;9.13;85.15;103785.53;3560446;40;20364;-64
2021/12/17 06:05:38;;;;;;;118.93;40.17;;;;;;;9.13;84.66;103782.84;3561855;40;20049;-64
2021/12/17 06:08:05;;;;;;;102.97;36.45;;;;;;;9.12;84.85;103786.44;3557314;40;20054;-64
2021/12/17 06:10:32;;;;;;;101.32;35.38;;;;;;;9.03;85.33;103774.84;3561024;40;20061;-64
2021/12/17 06:12:58;;;;;;;106.05;36.05;;;;;;;9.10;85.39;103785.53;3561627;40;20056;-64
2021/12/17 06:15:25;;;;;;;99.00;34.60;;;;;;;9.12;84.91;103794.50;3559562;40;20064;-64
2021/12/17 06:17:52;;;;;;;103.28;34.95;;;;;;;9.14;85.26;103793.56;3559792;40;20041;-63
2021/12/17 06:20:21;;;;;;;101.82;35.40;;;;;;;9.14;84.77;103782.84;3557638;40;20065;-64
2021/12/17 06:22:48;;;;;;;99.35;35.95;;;;;;;9.10;85.33;103780.19;3560709;40;20064;-64
2021/12/17 06:25:14;;;;;;;95.45;33.83;;;;;;;9.14;84.51;103784.63;3557462;40;20088;-64
2021/12/17 06:27:42;;;;;;;96.72;32.60;;;;;;;9.14;85.35;103803.44;3561732;40;20049;-64
2021/12/17 06:30:12;;;;;;;103.38;33.38;;;;;;;9.14;85.16;103808.78;3560524;40;20061;-64
2021/12/17 06:32:38;;;;;;;95.55;32.08;;;;;;;9.12;85.16;103811.47;3561628;40;20062;-64
2021/12/17 06:35:07;;;;;;;84.35;29.00;;;;;;;9.07;84.67;103800.78;3559819;40;20305;-64
2021/12/17 06:37:33;;;;;;;78.70;28.10;;;;;;;9.02;85.24;103789.19;3560672;40;20057;-64
2021/12/17 06:39:59;;;;;;;82.72;27.48;;;;;;;9.01;85.45;103792.78;3560270;40;20042;-64
2021/12/17 06:42:26;;;;;;;77.20;27.75;;;;;;;9.04;84.69;103800.81;3556756;40;20064;-64
2021/12/17 06:44:56;;;;;;;82.82;27.98;;;;;;;9.09;85.42;103807.94;3559499;40;20057;-64
2021/12/17 06:47:33;;;;;;;79.47;27.20;;;;;;;9.09;85.13;103803.44;3560420;40;20053;-64
2021/12/17 07:05:58;;;;;;;65.95;23.17;;;;;;;9.07;85.25;103805.28;3562634;40;20410;-65
2021/12/17 07:17:08;;;;;;;71.00;23.92;;;;;;;9.03;84.47;103798.13;3561213;40;20104;-65
2021/12/17 07:22:17;;;;;;;65.00;22.67;;;;;;;8.98;84.97;103808.03;3560247;40;20061;-65
2021/12/17 07:32:48;;;;;;;70.88;22.48;;;;;;;9.00;84.47;103812.44;3563738;40;20407;-65
2021/12/17 07:40:48;;;;;;;64.47;21.67;;;;;;;8.73;85.23;103748.28;3530436;40;20166;-64
2021/12/17 07:43:22;;;;;;;66.78;21.30;;;;;;;9.00;84.86;103796.34;3555431;40;20322;-64
2021/12/17 07:45:49;;;;;;;61.20;21.15;;;;;;;8.99;85.20;103794.56;3564808;40;20050;-64
2021/12/17 07:48:15;;;;;;;57.25;20.00;;;;;;;8.98;84.71;103784.75;3559740;40;20112;-65
2021/12/17 07:50:41;;;;;;;61.70;21.40;;;;;;;9.03;84.95;103790.97;3558473;40;20113;-64
2021/12/17 07:53:07;;;;;;;58.35;21.60;;;;;;;9.05;85.28;103791.84;3559831;40;20061;-65
2021/12/17 07:55:33;;;;;;;59.28;20.63;;;;;;;9.03;85.08;103790.06;3608110;23;20073;-63
2021/12/17 07:57:59;;;;;;;65.65;22.70;;;;;;;9.07;84.81;103794.53;3583582;40;20526;-64
2021/12/17 08:00:24;;;;;;;62.53;21.02;;;;;;;9.06;84.98;103796.31;3583442;40;20075;-64
2021/12/17 08:02:50;;;;;;;59.50;20.40;;;;;;;9.01;84.64;103792.78;3582795;40;20631;-64
2021/12/17 08:05:17;;;;;;;60.28;20.55;;;;;;;8.80;84.78;103750.91;3581432;40;20080;-64
2021/12/17 08:07:43;;;;;;;70.28;21.50;;;;;;;9.05;85.38;103793.66;3574484;40;20049;-64
2021/12/17 08:10:09;;;;;;;61.83;21.08;;;;;;;9.06;84.62;103798.09;3574759;40;20048;-64
2021/12/17 08:12:35;;;;;;;62.70;20.70;;;;;;;9.05;84.68;103799.91;3572984;40;20059;-65
2021/12/17 08:15:01;;;;;;;61.33;20.58;;;;;;;9.06;85.30;103803.47;3574142;40;20626;-64
2021/12/17 08:25:50;;;;;;;;;;;;;;;9.04;84.87;103813.34;3574358;40;20314;-66
2021/12/17 08:28:17;;;;;;;63.03;20.80;;;;;;;9.02;84.83;103816.03;3572590;40;19948;-66
2021/12/17 08:30:42;;;;;;;63.75;21.10;;;;;;;9.04;85.14;103813.34;3573764;40;20378;-66
2021/12/17 08:33:09;;;;;;;62.60;21.75;;;;;;;8.64;85.35;103751.91;3574913;40;20109;-66
2021/12/17 08:35:37;;;;;;;71.10;22.88;;;;;;;9.03;85.58;103828.53;3574801;40;20056;-66
2021/12/17 08:38:06;;;;;;;72.80;24.27;;;;;;;9.04;85.18;103826.75;3574163;40;20076;-65
2021/12/17 08:40:33;;;;;;;71.70;26.45;;;;;;;9.02;85.17;103815.13;3574084;40;20049;-65
2021/12/17 08:42:59;;;;;;;66.07;26.63;;;;;;;9.03;85.83;103828.53;3570896;40;20068;-65
2021/12/17 08:45:25;;;;;;;65.60;28.73;;;;;;;9.00;85.97;103833.03;3572975;40;20057;-66
2021/12/17 08:47:51;;;;;;;70.00;30.40;;;;;;;8.99;85.92;103825.88;3573111;40;20128;-66
2021/12/17 08:50:19;;;;;;;63.75;30.15;;;;;;;8.98;86.03;103826.81;3573919;40;20407;-65
2021/12/17 08:52:46;;;;;;;64.65;30.15;;;;;;;8.99;85.72;103832.13;3572678;40;20055;-65
2021/12/17 08:55:12;;;;;;;58.75;29.73;;;;;;;8.74;86.04;103776.88;3574234;40;20385;-65
2021/12/17 08:57:40;;;;;;;59.00;30.50;;;;;;;8.99;85.67;103815.16;3573450;40;20057;-65
2021/12/17 09:00:11;;;;;;;60.65;30.50;;;;;;;9.02;86.00;103807.97;3573826;40;20056;-65
2021/12/17 09:02:38;;;;;;;55.85;30.55;;;;;;;9.03;86.05;103823.16;3572465;40;20099;-66
2021/12/17 09:05:06;;;;;;;58.60;30.48;;;;;;;9.04;84.96;103824.97;3572202;40;20100;-66
2021/12/17 09:07:32;;;;;;;56.33;29.38;;;;;;;8.98;85.51;103808.03;3573897;40;20086;-67
2021/12/17 09:09:58;;;;;;;57.33;30.60;;;;;;;8.86;85.73;103782.16;3572792;40;20057;-67
2021/12/17 09:12:24;;;;;;;55.60;29.30;;;;;;;9.05;85.34;103821.38;3573126;40;20069;-65
2021/12/17 09:14:49;;;;;;;58.40;30.90;;;;;;;9.07;85.83;103830.31;3571189;40;20060;-65
2021/12/17 09:17:15;;;;;;;57.88;31.50;;;;;;;9.09;85.41;103834.75;3572955;40;20044;-66
2021/12/17 09:19:41;;;;;;;57.97;29.60;;;;;;;9.11;85.57;103832.97;3572582;40;20383;-66
2021/12/17 09:22:06;;;;;;;53.40;28.58;;;;;;;9.14;85.86;103838.31;3572738;40;20100;-66
2021/12/17 09:24:32;;;;;;;56.08;30.35;;;;;;;9.13;85.10;103844.56;3573893;40;20094;-65
2021/12/17 09:26:59;;;;;;;57.20;31.27;;;;;;;9.09;85.02;103849.06;3572094;40;20098;-65
2021/12/17 09:29:25;;;;;;;56.15;30.83;;;;;;;9.09;85.42;103854.44;3573191;40;20062;-65
2021/12/17 09:31:51;;;;;;;59.20;30.02;;;;;;;9.07;85.39;103859.81;3573340;40;20412;-65
2021/12/17 09:34:16;;;;;;;61.95;31.23;;;;;;;9.08;85.46;103852.66;3572936;40;20088;-65
2021/12/17 09:36:43;;;;;;;60.10;31.65;;;;;;;9.09;86.13;103866.97;3571990;40;20052;-66
2021/12/17 09:39:08;;;;;;;61.88;30.67;;;;;;;9.11;85.82;103862.50;3571651;40;20075;-65
2021/12/17 09:41:34;;;;;;;63.20;30.67;;;;;;;9.13;85.38;103868.72;3573133;40;20045;-66
2021/12/17 09:44:00;;;;;;;62.80;30.58;;;;;;;9.14;85.41;103867.84;3573531;40;20068;-67
2021/12/17 09:46:26;;;;;;;58.15;30.15;;;;;;;9.15;85.77;103869.59;3572054;40;20057;-66
2021/12/17 09:48:52;;;;;;;59.65;31.15;;;;;;;9.01;85.55;103850.94;3573604;40;20052;-66
2021/12/17 09:51:19;;;;;;;62.83;31.25;;;;;;;9.18;85.55;103872.28;3573310;40;20052;-67
2021/12/17 09:53:46;;;;;;;63.92;30.33;;;;;;;9.20;85.40;103874.06;3571840;40;20056;-66
2021/12/17 09:56:12;;;;;;;61.88;30.73;;;;;;;9.26;85.37;103883.81;3572861;40;20084;-66
2021/12/17 09:58:38;;;;;;;62.90;29.52;;;;;;;9.26;85.59;103890.13;3571587;40;20271;-67
2021/12/17 10:01:05;;;;;;;58.58;29.33;;;;;;;9.10;85.67;103855.31;3569383;40;20075;-66
2021/12/17 10:03:31;;;;;;;55.25;28.85;;;;;;;9.12;85.28;103853.53;3572735;40;20419;-66
2021/12/17 10:05:57;;;;;;;53.85;28.58;;;;;;;9.28;85.10;103882.03;3571859;40;20382;-66
2021/12/17 10:08:25;;;;;;;59.30;29.35;;;;;;;9.10;85.15;103855.31;3572402;40;20056;-66
2021/12/17 10:10:55;;;;;;;62.22;29.50;;;;;;;9.29;85.56;103882.03;3572910;40;20312;-65
2021/12/17 10:13:29;;;;;;;54.85;28.13;;;;;;;9.30;85.33;103885.59;3572764;40;20049;-65
2021/12/17 10:16:01;;;;;;;58.58;29.13;;;;;;;9.33;85.83;103896.31;3572324;40;20061;-68
2021/12/17 10:18:37;;;;;;;61.38;29.27;;;;;;;9.32;85.54;103886.47;3572601;40;20049;-65
2021/12/17 10:21:11;;;;;;;58.60;28.45;;;;;;;9.33;85.21;103890.97;3572395;40;20049;-65
2021/12/17 10:23:41;;;;;;;53.20;27.77;;;;;;;9.36;85.80;103885.56;3574111;40;20276;-65
2021/12/17 10:26:14;;;;;;;52.38;27.60;;;;;;;9.38;85.23;103878.38;3573601;40;20060;-66
2021/12/17 10:29:04;;;;;;;55.33;26.85;;;;;;;9.41;85.41;103882.81;3574567;40;20061;-65
2021/12/17 10:31:35;;;;;;;47.78;25.08;;;;;;;9.34;85.42;103871.25;3575345;40;20299;-66
2021/12/17 10:34:04;;;;;;;52.85;25.40;;;;;;;9.43;85.09;103898.03;3575308;40;20760;-66
2021/12/17 10:36:41;;;;;;;50.38;24.10;;;;;;;9.43;84.94;103891.78;3575044;40;20111;-66
2021/12/17 10:39:30;;;;;;;49.28;25.17;;;;;;;9.44;85.54;103894.44;3573214;40;20051;-65
2021/12/17 10:41:56;;;;;;;49.47;23.58;;;;;;;9.42;85.28;103882.84;3574399;40;20081;-65
2021/12/17 10:44:23;;;;;;;53.85;22.95;;;;;;;9.43;85.42;103887.28;3574983;40;20052;-66
2021/12/17 10:47:32;;;;;;;51.33;24.17;;;;;;;9.46;85.90;103881.91;3573198;40;20343;-65
2021/12/17 10:49:57;;;;;;;42.00;19.25;;;;;;;9.47;84.82;103886.34;3574488;40;20049;-66
2021/12/17 10:52:35;;;;;;;45.33;19.33;;;;;;;9.51;84.69;103888.13;3573802;40;20053;-66
2021/12/17 10:55:16;;;;;;;42.65;17.10;;;;;;;9.52;85.02;103887.22;3573312;40;20157;-66
2021/12/17 10:57:43;;;;;;;37.47;17.52;;;;;;;9.53;85.04;103891.69;3573393;40;20090;-66
2021/12/17 11:00:11;;;;;;;38.50;18.00;;;;;;;9.54;84.59;103896.13;3574397;40;20093;-67
2021/12/17 11:02:37;;;;;;;39.40;17.48;;;;;;;9.56;84.86;103892.56;3573232;40;20396;-68
2021/12/17 11:05:14;;;;;;;39.85;18.30;;;;;;;9.48;84.75;103874.72;3574346;40;20065;-67
2021/12/17 11:07:45;;;;;;;40.45;18.38;;;;;;;9.62;84.25;103892.50;3571542;40;20063;-67
2021/12/17 11:10:10;;;;;;;39.80;17.55;;;;;;;9.63;84.60;103889.81;3573134;40;20060;-66
2021/12/17 11:12:41;;;;;;;36.45;16.77;;;;;;;9.64;83.88;103890.69;3574827;40;20142;-66
2021/12/17 11:15:19;;;;;;;38.90;17.27;;;;;;;9.65;84.40;103881.75;3574454;40;20056;-67
2021/12/17 11:17:50;;;;;;;40.90;17.55;;;;;;;9.64;83.76;103879.94;3574183;40;20108;-67
2021/12/17 11:20:27;;;;;;;38.67;16.70;;;;;;;9.48;84.04;103858.63;3573318;40;20122;-66
2021/12/17 11:22:56;;;;;;;39.65;17.00;;;;;;;9.66;84.01;103883.53;3574887;40;20049;-66
2021/12/17 11:25:24;;;;;;;37.60;17.00;;;;;;;9.63;84.08;103878.16;3563861;40;20048;-67
2021/12/17 11:27:52;;;;;;;39.83;17.08;;;;;;;9.67;84.62;103882.59;3563618;40;20045;-66
2021/12/17 11:30:23;;;;;;;40.80;17.20;;;;;;;9.56;84.34;103860.34;3573658;40;20126;-67
2021/12/17 11:32:51;;;;;;;40.20;17.45;;;;;;;9.63;83.76;103873.69;3574358;40;20051;-66
2021/12/17 11:35:22;;;;;;;40.90;17.25;;;;;;;9.55;84.23;103854.09;3572634;40;20072;-66
2021/12/17 11:37:52;;;;;;;38.78;17.05;;;;;;;9.58;83.86;103864.81;3572444;40;20061;-67
2021/12/17 11:40:32;;;;;;;39.30;17.60;;;;;;;9.28;83.82;103804.19;3575075;40;20085;-66
2021/12/17 11:43:48;;;;;;;41.70;17.08;;;;;;;9.62;83.81;103862.97;3574696;40;20096;-67
2021/12/17 11:46:14;;;;;;;32.80;15.45;;;;;;;9.57;84.34;103851.38;3574331;40;20398;-66
2021/12/17 11:48:57;;;;;;;39.88;16.70;;;;;;;9.57;84.51;103852.25;3574912;40;20119;-67
2021/12/17 11:51:29;;;;;;;33.88;15.18;;;;;;;9.62;84.67;103850.44;3573327;40;20059;-67
2021/12/17 11:53:58;;;;;;;34.95;15.32;;;;;;;9.64;84.51;103843.25;3573185;40;20090;-66
2021/12/17 11:56:45;;;;;;;36.75;17.05;;;;;;;9.67;84.19;103845.91;3573220;40;20059;-67
2021/12/17 11:59:23;;;;;;;37.80;17.27;;;;;;;9.69;83.70;103845.88;3572514;40;20068;-66
2021/12/17 12:02:15;;;;;;;31.77;16.30;;;;;;;9.59;83.84;103830.78;3573098;40;20153;-67
2021/12/17 12:04:54;;;;;;;34.75;16.27;;;;;;;9.68;83.86;103838.75;3571383;40;20045;-67
2021/12/17 12:07:25;;;;;;;34.05;16.05;;;;;;;9.72;83.59;103835.13;3573528;40;20071;-66
2021/12/17 12:10:10;;;;;;;33.72;16.70;;;;;;;9.74;84.09;103844.06;3573636;40;20121;-66
2021/12/17 12:12:41;;;;;;;32.67;15.65;;;;;;;9.78;83.77;103843.13;3573308;40;20056;-66
2021/12/17 12:15:27;;;;;;;39.80;17.45;;;;;;;9.79;83.66;103847.56;3572167;40;20057;-67
2021/12/17 12:18:07;;;;;;;31.83;15.70;;;;;;;9.81;83.72;103845.78;3572107;40;20057;-67
2021/12/17 12:20:43;;;;;;;30.92;16.17;;;;;;;9.81;83.54;103848.47;3574175;40;20089;-67
2021/12/17 12:23:28;;;;;;;31.05;16.85;;;;;;;9.84;83.37;103855.59;3572871;40;20059;-67
2021/12/17 12:26:07;;;;;;;29.98;16.02;;;;;;;9.81;83.62;103851.13;3573438;40;20051;-66
2021/12/17 12:28:44;;;;;;;30.52;15.82;;;;;;;9.77;83.13;103854.78;3574577;40;20118;-67
2021/12/17 12:31:12;;;;;;;29.35;15.13;;;;;;;9.73;83.58;103861.06;3572713;40;20049;-66
2021/12/17 12:34:00;;;;;;;27.75;14.98;;;;;;;9.75;83.22;103851.19;3576108;40;20058;-66
2021/12/17 12:36:55;;;;;;;30.23;15.95;;;;;;;9.75;83.90;103841.34;3574691;40;20056;-68
2021/12/17 12:39:35;;;;;;;30.13;15.70;;;;;;;9.77;83.86;103849.41;3575303;40;21022;-66
2021/12/17 12:42:30;;;;;;;29.52;15.50;;;;;;;9.75;83.10;103844.03;3574936;40;20064;-66
2021/12/17 12:45:07;;;;;;;33.20;17.52;;;;;;;9.76;83.40;103842.22;3573299;40;20076;-66
2021/12/17 12:47:40;;;;;;;24.92;15.05;;;;;;;9.77;84.37;103834.16;3571853;40;20044;-67
2021/12/17 12:50:11;;;;;;;26.23;14.75;;;;;;;9.76;83.17;103829.69;3575912;40;20049;-67
2021/12/17 12:52:51;;;;;;;26.83;14.45;;;;;;;9.77;83.63;103828.78;3574229;40;20052;-66
2021/12/17 12:55:30;;;;;;;24.83;14.82;;;;;;;9.78;83.74;103837.75;3571568;40;20130;-66
2021/12/17 12:57:58;;;;;;;23.02;13.82;;;;;;;9.79;83.28;103835.94;3573432;40;20438;-66
2021/12/17 13:00:46;;;;;;;25.58;15.55;;;;;;;9.77;83.45;103827.91;3574244;40;20496;-66
2021/12/17 13:03:34;;;;;;;25.27;16.02;;;;;;;9.76;83.82;103829.69;3573509;40;20291;-66
2021/12/17 13:06:01;;;;;;;24.67;14.68;;;;;;;9.70;83.19;103824.38;3563653;40;20137;-66
2021/12/17 13:08:33;;;;;;;24.60;14.00;;;;;;;9.73;83.40;103834.19;3574120;40;20056;-66
2021/12/17 13:11:06;;;;;;;23.60;14.55;;;;;;;9.61;82.94;103813.75;3569618;40;20051;-66
2021/12/17 13:13:51;;;;;;;25.00;13.90;;;;;;;9.68;82.59;103836.06;3571864;40;20056;-67
2021/12/17 13:16:41;;;;;;;26.20;15.02;;;;;;;9.67;82.53;103843.22;3571781;40;20040;-66
2021/12/17 13:24:28;;;;;;;23.13;13.85;;;;;;;9.64;82.04;103837.88;3571803;40;20053;-66
2021/12/17 13:27:01;;;;;;;25.00;14.52;;;;;;;9.63;82.19;103837.88;3563956;40;20326;-66
2021/12/17 13:29:33;;;;;;;24.73;13.77;;;;;;;9.60;81.80;103846.84;3572387;40;20049;-66
2021/12/17 13:32:10;;;;;;;25.75;13.80;;;;;;;9.56;82.02;103833.47;3573091;40;20435;-66
2021/12/17 13:34:40;;;;;;;21.38;13.30;;;;;;;9.55;81.72;103827.22;3573844;40;20315;-66
2021/12/17 13:37:20;;;;;;;20.50;13.00;;;;;;;9.54;81.94;103837.06;3571879;40;20059;-67
2021/12/17 13:39:47;;;;;;;20.02;11.80;;;;;;;9.52;81.40;103830.81;3573990;40;20057;-66
2021/12/17 13:42:19;;;;;;;16.90;10.60;;;;;;;9.50;81.07;103835.31;3573444;40;20064;-66
2021/12/17 13:44:50;;;;;;;11.70;8.80;;;;;;;9.51;80.97;103831.75;3571276;40;20053;-66
2021/12/17 13:47:29;;;;;;;12.05;8.95;;;;;;;9.56;81.47;103833.47;3562995;40;20051;-67
2021/12/17 13:50:07;;;;;;;14.20;9.48;;;;;;;9.55;81.09;103824.53;3573196;40;20060;-67
2021/12/17 13:52:38;;;;;;;12.55;8.50;;;;;;;9.54;80.64;103829.00;3573668;40;20049;-67
2021/12/17 13:55:10;;;;;;;11.43;8.05;;;;;;;9.54;81.33;103830.78;3604862;23;20591;-61
2021/12/17 13:57:36;;;;;;;16.98;10.07;;;;;;;9.44;81.56;103815.69;3579979;40;20083;-61
2021/12/17 14:00:36;;;;;;;13.68;9.32;;;;;;;9.48;81.43;103831.75;3583984;40;20067;-61
2021/12/17 14:03:04;;;;;;;12.50;8.63;;;;;;;9.43;81.63;103824.66;3578318;40;20036;-61
2021/12/17 14:05:49;;;;;;;9.98;7.28;;;;;;;9.43;81.54;103833.59;3574079;40;20069;-64
2021/12/17 14:08:20;;;;;;;8.10;5.85;;;;;;;9.43;80.81;103838.97;3578021;40;20059;-63
2021/12/17 14:10:49;;;;;;;9.38;5.90;;;;;;;9.37;80.85;103833.63;3580302;40;20056;-61
2021/12/17 14:13:24;;;;;;;7.68;6.22;;;;;;;9.33;81.39;103831.00;3564853;40;20508;-61
2021/12/17 14:15:54;;;;;;;7.93;5.75;;;;;;;9.38;80.56;103840.78;3577887;40;20052;-61
2021/12/17 14:18:27;;;;;;;7.97;5.40;;;;;;;9.37;80.28;103838.13;3573266;40;20493;-62